createdAt,value
2022-12-14T00:00:28.938Z,10.38
2022-12-14T00:02:57.177Z,8.93
2022-12-14T00:05:25.799Z,9.50
2022-12-14T00:07:54.070Z,8.48
2022-12-14T00:10:22.756Z,9.30
2022-12-14T00:12:51.206Z,9.30
2022-12-14T00:15:20.243Z,9.68
2022-12-14T00:17:50.018Z,9.63
2022-12-14T00:20:18.656Z,10.93
2022-12-14T00:22:47.449Z,8.27
2022-12-14T00:25:16.093Z,8.52
2022-12-14T00:27:45.636Z,8.40
2022-12-14T00:30:14.596Z,9.15
2022-12-14T00:32:42.762Z,9.52
2022-12-14T00:35:19.163Z,9.85
2022-12-14T00:37:48.829Z,9.52
2022-12-14T00:40:17.412Z,8.75
2022-12-14T00:42:45.491Z,10.07
2022-12-14T00:45:13.606Z,8.90
2022-12-14T00:47:44.882Z,8.90
2022-12-14T00:50:14.443Z,9.13
2022-12-14T00:52:42.399Z,9.65
2022-12-14T00:55:11.591Z,8.32
2022-12-14T00:57:39.764Z,9.40
2022-12-14T01:00:09.577Z,9.13
2022-12-14T01:02:37.793Z,8.05
2022-12-14T01:05:06.626Z,9.60
2022-12-14T01:07:35.943Z,8.75
2022-12-14T01:10:04.440Z,9.50
2022-12-14T01:12:32.593Z,8.60
2022-12-14T01:15:00.962Z,9.43
2022-12-14T01:17:29.049Z,7.85
2022-12-14T01:19:57.331Z,9.13
2022-12-14T01:22:25.729Z,7.55
2022-12-14T01:24:55.196Z,9.60
2022-12-14T01:27:26.518Z,8.20
2022-12-14T01:29:57.451Z,7.53
2022-12-14T01:32:25.555Z,7.85
2022-12-14T01:34:53.963Z,8.63
2022-12-14T01:37:21.957Z,8.50
2022-12-14T01:39:50.283Z,8.18
2022-12-14T01:42:19.839Z,8.52
2022-12-14T01:44:55.838Z,8.75
2022-12-14T01:47:30.267Z,9.02
2022-12-14T01:50:03.441Z,8.32
2022-12-14T01:52:37.959Z,7.90
2022-12-14T01:55:11.419Z,8.57
2022-12-14T01:57:45.467Z,8.15
2022-12-14T02:00:15.370Z,9.25
2022-12-14T02:02:50.421Z,8.88
2022-12-14T02:05:21.774Z,8.85
2022-12-14T02:07:52.208Z,8.70
2022-12-14T02:10:22.436Z,8.75
2022-12-14T02:12:58.471Z,7.10
2022-12-14T02:15:26.779Z,8.43
2022-12-14T02:17:55.010Z,9.10
2022-12-14T02:20:24.958Z,8.38
2022-12-14T02:23:42.558Z,8.85
2022-12-14T02:26:38.302Z,7.57
2022-12-14T02:29:30.418Z,8.95
2022-12-14T02:32:10.186Z,9.30
2022-12-14T02:34:49.631Z,9.18
2022-12-14T02:37:23.947Z,8.15
2022-12-14T02:40:03.262Z,8.50
2022-12-14T02:42:43.243Z,8.55
2022-12-14T02:45:21.694Z,7.72
2022-12-14T02:47:55.449Z,8.60
2022-12-14T02:50:31.984Z,8.60
2022-12-14T02:53:09.036Z,8.25
2022-12-14T02:55:40.843Z,8.85
2022-12-14T02:58:15.458Z,8.57
2022-12-14T03:00:46.505Z,9.07
2022-12-14T03:03:14.565Z,9.50
2022-12-14T03:05:43.169Z,9.38
2022-12-14T03:08:15.242Z,8.63
2022-12-14T03:10:49.973Z,8.77
2022-12-14T03:13:23.279Z,8.13
2022-12-14T03:15:58.966Z,8.43
2022-12-14T03:18:31.889Z,9.55
2022-12-14T03:21:02.327Z,9.18
2022-12-14T03:23:35.724Z,8.65
2022-12-14T03:26:13.649Z,8.88
2022-12-14T03:28:46.730Z,8.18
2022-12-14T03:31:22.265Z,8.15
2022-12-14T03:33:53.396Z,7.85
2022-12-14T03:36:28.465Z,8.38
2022-12-14T03:39:02.144Z,8.85
2022-12-14T03:41:39.425Z,8.80
2022-12-14T03:44:23.960Z,8.70
2022-12-14T03:46:59.788Z,7.88
2022-12-14T03:49:39.698Z,7.32
2022-12-14T03:52:13.816Z,7.25
2022-12-14T03:54:52.299Z,6.95
2022-12-14T03:57:34.393Z,7.88
2022-12-14T04:00:06.993Z,7.22
2022-12-14T04:02:42.996Z,7.57
2022-12-14T04:05:16.132Z,7.82
2022-12-14T04:07:53.752Z,7.40
2022-12-14T04:10:43.914Z,7.35
2022-12-14T04:13:48.982Z,8.23
2022-12-14T04:16:40.459Z,7.03
2022-12-14T04:19:25.255Z,7.75
2022-12-14T04:21:58.565Z,7.18
2022-12-14T04:24:50.752Z,6.63
2022-12-14T04:27:23.941Z,7.85
2022-12-14T04:30:00.434Z,6.80
2022-12-14T04:32:34.368Z,7.82
2022-12-14T04:35:10.932Z,7.07
2022-12-14T04:37:41.660Z,6.00
2022-12-14T04:40:12.863Z,8.02
2022-12-14T04:42:47.482Z,8.35
2022-12-14T04:45:22.453Z,7.68
2022-12-14T04:47:58.179Z,7.63
2022-12-14T04:50:32.309Z,7.00
2022-12-14T04:53:06.208Z,8.05
2022-12-14T04:55:38.360Z,7.88
2022-12-14T04:58:12.063Z,7.05
2022-12-14T05:00:52.029Z,7.05
2022-12-14T05:03:25.812Z,7.28
2022-12-14T05:06:06.800Z,8.35
2022-12-14T05:09:01.769Z,7.60
2022-12-14T05:14:25.973Z,9.43
2022-12-14T05:16:54.320Z,7.95
2022-12-14T05:19:26.568Z,8.00
2022-12-14T05:21:56.888Z,7.38
2022-12-14T05:24:25.237Z,8.30
2022-12-14T05:26:53.685Z,8.50
2022-12-14T05:29:22.191Z,8.45
2022-12-14T05:31:50.838Z,8.60
2022-12-14T05:34:19.319Z,8.02
2022-12-14T05:36:47.623Z,8.60
2022-12-14T05:39:18.441Z,8.95
2022-12-14T05:41:46.898Z,8.10
2022-12-14T05:44:15.376Z,7.90
2022-12-14T05:46:43.953Z,9.00
2022-12-14T05:49:13.022Z,8.18
2022-12-14T05:51:41.336Z,9.68
2022-12-14T05:54:10.288Z,8.52
2022-12-14T05:56:39.961Z,9.23
2022-12-14T05:59:08.307Z,7.30
2022-12-14T06:01:36.468Z,8.90
2022-12-14T06:04:04.783Z,8.20
2022-12-14T06:06:34.963Z,10.05
2022-12-14T06:09:03.281Z,9.57
2022-12-14T06:11:31.401Z,8.88
2022-12-14T06:14:01.522Z,8.90
2022-12-14T06:16:30.395Z,8.27
2022-12-14T06:19:00.648Z,9.10
2022-12-14T06:21:31.533Z,9.48
2022-12-14T06:24:01.734Z,10.80
2022-12-14T06:26:32.530Z,10.10
2022-12-14T06:29:02.362Z,8.52
2022-12-14T06:31:33.727Z,8.52
2022-12-14T06:34:03.695Z,9.40
2022-12-14T06:36:33.977Z,8.63
2022-12-14T06:39:04.194Z,8.27
2022-12-14T06:41:32.568Z,9.52
2022-12-14T06:44:07.106Z,9.10
2022-12-14T06:46:35.919Z,8.70
2022-12-14T06:49:06.221Z,8.65
2022-12-14T06:51:46.697Z,8.80
2022-12-14T06:54:15.628Z,9.05
2022-12-14T06:56:44.675Z,10.40
2022-12-14T06:59:14.645Z,10.90
2022-12-14T07:01:42.940Z,9.07
2022-12-14T07:04:11.885Z,9.73
2022-12-14T07:06:41.570Z,10.20
2022-12-14T07:09:13.336Z,10.32
2022-12-14T07:11:42.559Z,9.40
2022-12-14T07:14:17.229Z,10.55
2022-12-14T07:16:48.738Z,11.00
2022-12-14T07:19:17.494Z,11.77
2022-12-14T07:21:45.486Z,10.75
2022-12-14T07:24:13.528Z,10.00
2022-12-14T07:26:41.700Z,10.48
2022-12-14T07:29:11.892Z,10.73
2022-12-14T07:31:41.234Z,10.25
2022-12-14T07:34:12.476Z,10.52
2022-12-14T07:36:40.636Z,8.82
2022-12-14T07:39:08.990Z,11.93
2022-12-14T07:41:37.209Z,11.35
2022-12-14T07:44:05.378Z,11.10
2022-12-14T07:46:33.562Z,10.30
2022-12-14T07:49:03.666Z,10.48
2022-12-14T07:51:33.191Z,11.70
2022-12-14T07:54:02.627Z,10.65
2022-12-14T07:56:34.435Z,11.57
2022-12-14T07:59:04.433Z,11.60
2022-12-14T08:01:34.907Z,11.40
2022-12-14T08:04:07.697Z,10.48
2022-12-14T08:06:37.682Z,9.82
2022-12-14T08:09:06.472Z,12.30
2022-12-14T08:11:34.953Z,11.98
2022-12-14T08:14:05.671Z,11.63
2022-12-14T08:16:34.336Z,12.13
2022-12-14T08:19:04.983Z,10.68
2022-12-14T08:21:35.489Z,9.60
2022-12-14T08:24:03.582Z,9.63
2022-12-14T08:26:35.460Z,12.60
2022-12-14T08:29:04.648Z,11.73
2022-12-14T08:31:33.831Z,10.98
2022-12-14T08:34:03.220Z,10.88
2022-12-14T08:36:35.101Z,10.85
2022-12-14T08:39:05.533Z,11.93
2022-12-14T08:41:34.127Z,11.85
2022-12-14T08:44:03.957Z,11.40
2022-12-14T08:46:34.033Z,12.20
2022-12-14T08:49:02.401Z,11.48
2022-12-14T08:51:32.427Z,12.10
2022-12-14T08:54:00.664Z,12.32
2022-12-14T08:56:30.007Z,12.18
2022-12-14T08:58:58.851Z,11.32
2022-12-14T09:01:33.493Z,11.68
2022-12-14T09:04:07.978Z,11.82
2022-12-14T09:06:40.367Z,11.27
2022-12-14T09:09:15.977Z,12.18
2022-12-14T09:11:45.395Z,13.60
2022-12-14T09:14:14.149Z,12.20
2022-12-14T09:16:42.782Z,12.05
2022-12-14T09:19:11.579Z,12.05
2022-12-14T09:21:41.384Z,12.00
2022-12-14T09:24:12.050Z,12.27
2022-12-14T09:26:40.331Z,13.07
2022-12-14T09:29:08.615Z,11.43
2022-12-14T09:31:37.391Z,13.02
2022-12-14T09:34:05.904Z,12.10
2022-12-14T09:36:34.874Z,14.60
2022-12-14T09:39:05.416Z,12.48
2022-12-14T09:41:57.751Z,13.25
2022-12-14T09:44:48.289Z,13.10
2022-12-14T09:47:22.117Z,13.10
2022-12-14T09:49:54.585Z,12.32
2022-12-14T09:52:27.357Z,12.30
2022-12-14T09:54:59.630Z,12.93
2022-12-14T09:57:33.899Z,13.68
2022-12-14T10:00:02.095Z,13.25
2022-12-14T10:02:41.983Z,13.27
2022-12-14T10:05:47.053Z,13.25
2022-12-14T10:08:22.803Z,12.00
2022-12-14T10:11:00.476Z,14.07
2022-12-14T10:13:38.791Z,11.68
2022-12-14T10:16:15.012Z,13.45
2022-12-14T10:19:18.232Z,13.18
2022-12-14T10:21:50.391Z,15.07
2022-12-14T10:24:23.327Z,13.27
2022-12-14T10:26:55.108Z,13.63
2022-12-14T10:29:31.092Z,13.45
2022-12-14T10:32:08.034Z,12.65
2022-12-14T10:34:38.504Z,13.40
2022-12-14T10:37:22.218Z,13.80
2022-12-14T10:40:01.766Z,13.85
2022-12-14T10:42:44.581Z,12.30
2022-12-14T10:45:45.445Z,12.95
2022-12-14T10:48:37.283Z,13.25
2022-12-14T10:51:09.645Z,14.05
2022-12-14T10:53:44.274Z,14.13
2022-12-14T10:56:18.366Z,13.60
2022-12-14T10:59:26.828Z,13.00
2022-12-14T11:02:02.692Z,14.38
2022-12-14T11:04:39.057Z,13.02
2022-12-14T11:07:10.846Z,13.35
2022-12-14T11:09:40.921Z,12.45
2022-12-14T11:12:19.598Z,13.40
2022-12-14T11:14:55.690Z,13.02
2022-12-14T11:17:36.512Z,13.15
2022-12-14T11:20:15.582Z,12.52
2022-12-14T11:22:49.109Z,13.65
2022-12-14T11:25:35.361Z,12.57
2022-12-14T11:28:20.253Z,13.60
2022-12-14T11:31:01.517Z,13.40
2022-12-14T11:33:35.994Z,14.10
2022-12-14T11:36:10.974Z,13.32
2022-12-14T11:38:39.525Z,13.18
2022-12-14T11:41:11.796Z,13.68
2022-12-14T11:43:41.504Z,13.43
2022-12-14T11:46:12.808Z,12.13
2022-12-14T11:48:50.905Z,12.88
2022-12-14T11:51:19.944Z,12.75
2022-12-14T11:54:07.380Z,12.95
2022-12-14T11:56:38.461Z,14.50
2022-12-14T11:59:07.150Z,13.27
2022-12-14T12:01:38.466Z,13.20
2022-12-14T12:04:14.041Z,13.18
2022-12-14T12:06:44.877Z,13.73
2022-12-14T12:09:28.423Z,13.80
2022-12-14T12:11:57.559Z,13.70
2022-12-14T12:14:32.087Z,15.02
2022-12-14T12:17:03.232Z,13.02
2022-12-14T12:19:37.711Z,13.18
2022-12-14T12:22:10.544Z,14.68
2022-12-14T12:25:08.608Z,14.23
2022-12-14T12:27:35.655Z,13.85
2022-12-14T12:30:08.307Z,14.32
2022-12-14T12:32:49.931Z,13.90
2022-12-14T12:35:23.229Z,13.48
2022-12-14T12:37:55.479Z,15.45
2022-12-14T12:40:30.327Z,15.38
2022-12-14T12:43:03.479Z,16.67
2022-12-14T12:45:38.100Z,14.38
2022-12-14T12:48:18.058Z,15.68
2022-12-14T12:50:51.105Z,15.65
2022-12-14T12:53:26.317Z,16.50
2022-12-14T12:55:58.580Z,18.70
2022-12-14T12:58:34.016Z,16.42
2022-12-14T13:01:07.193Z,16.80
2022-12-14T13:03:40.957Z,18.10
2022-12-14T13:06:14.631Z,18.52
2022-12-14T13:08:49.778Z,17.15
2022-12-14T13:11:26.838Z,15.88
2022-12-14T13:13:59.403Z,15.40
2022-12-14T13:16:33.833Z,17.00
2022-12-14T13:22:07.954Z,17.20
2022-12-14T13:24:38.802Z,15.85
2022-12-14T13:27:44.882Z,16.35
2022-12-14T13:30:22.556Z,16.00
2022-12-14T13:33:08.663Z,17.50
2022-12-14T13:35:50.825Z,17.05
2022-12-14T13:38:56.099Z,18.63
2022-12-14T13:41:35.697Z,15.00
2022-12-14T13:44:40.253Z,15.55
2022-12-14T13:47:16.900Z,15.45
2022-12-14T13:52:46.480Z,16.15
2022-12-14T13:55:29.499Z,18.17
2022-12-14T13:58:17.596Z,16.65
2022-12-14T14:00:58.137Z,17.52
2022-12-14T14:03:48.397Z,17.17
2022-12-14T14:06:23.810Z,17.58
2022-12-14T14:08:54.209Z,16.52
2022-12-14T14:11:56.792Z,17.25
2022-12-14T14:14:41.587Z,16.40
2022-12-14T14:17:18.662Z,17.30
2022-12-14T14:19:49.727Z,18.33
2022-12-14T14:22:23.278Z,17.33
2022-12-14T14:25:02.160Z,14.93
2022-12-14T14:27:37.793Z,16.02
2022-12-14T14:30:26.128Z,16.50
2022-12-14T14:33:07.610Z,16.45
2022-12-14T14:35:43.779Z,17.38
2022-12-14T14:38:27.298Z,18.05
2022-12-14T14:41:16.739Z,17.77
2022-12-14T14:43:52.019Z,17.52
2022-12-14T14:46:23.331Z,19.92
2022-12-14T14:48:54.805Z,15.77
2022-12-14T14:51:27.307Z,17.45
2022-12-14T14:57:55.599Z,16.05
2022-12-14T15:00:24.971Z,18.77
2022-12-14T15:02:55.741Z,18.77
2022-12-14T15:05:44.183Z,19.35
2022-12-14T15:08:20.138Z,17.70
2022-12-14T15:10:50.176Z,20.30
2022-12-14T15:13:24.533Z,18.23
2022-12-14T15:15:56.283Z,18.48
2022-12-14T15:18:27.128Z,18.23
2022-12-14T15:20:59.175Z,18.50
2022-12-14T15:23:33.311Z,18.05
2022-12-14T15:26:03.558Z,19.88
2022-12-14T15:28:33.038Z,17.80
2022-12-14T15:31:01.739Z,19.05
2022-12-14T15:33:35.067Z,17.17
2022-12-14T15:36:06.179Z,18.20
2022-12-14T15:38:37.114Z,16.85
2022-12-14T15:41:08.273Z,17.77
2022-12-14T15:43:45.111Z,17.45
2022-12-14T15:46:19.027Z,16.65
2022-12-14T15:48:48.018Z,17.48
2022-12-14T15:51:20.000Z,18.00
2022-12-14T15:53:51.377Z,18.35
2022-12-14T15:56:30.560Z,18.77
2022-12-14T15:59:03.393Z,19.45
2022-12-14T16:01:36.683Z,21.27
2022-12-14T16:04:09.535Z,19.35
2022-12-14T16:06:41.820Z,19.95
2022-12-14T16:09:18.442Z,19.65
2022-12-14T16:11:50.797Z,19.58
2022-12-14T16:14:27.184Z,19.20
2022-12-14T16:16:55.716Z,20.13
2022-12-14T16:19:28.867Z,21.92
2022-12-14T16:22:22.853Z,19.63
2022-12-14T16:25:18.191Z,20.17
2022-12-14T16:27:49.839Z,21.52
2022-12-14T16:30:28.102Z,21.25
2022-12-14T16:33:08.533Z,22.25
2022-12-14T16:35:39.585Z,22.30
2022-12-14T16:38:10.039Z,18.80
2022-12-14T16:40:40.853Z,21.73
2022-12-14T16:43:26.905Z,21.50
2022-12-14T16:46:18.551Z,22.67
2022-12-14T16:49:09.445Z,21.38
2022-12-14T16:54:31.048Z,21.55
2022-12-14T16:57:03.425Z,21.25
2022-12-14T16:59:44.232Z,22.85
2022-12-14T17:02:31.430Z,20.95
2022-12-14T17:05:03.757Z,21.60
2022-12-14T17:07:34.291Z,21.52
2022-12-14T17:10:03.044Z,21.02
2022-12-14T17:12:31.266Z,23.05
2022-12-14T17:15:00.401Z,21.33
2022-12-14T17:17:35.053Z,23.40
2022-12-14T17:20:06.868Z,21.88
2022-12-14T17:22:37.609Z,23.67
2022-12-14T17:25:06.689Z,23.27
2022-12-14T17:27:34.790Z,22.63
2022-12-14T17:30:03.312Z,22.27
2022-12-14T17:32:34.571Z,23.17
2022-12-14T17:35:04.251Z,24.80
2022-12-14T17:37:36.434Z,23.60
2022-12-14T17:40:06.994Z,25.45
2022-12-14T17:42:35.841Z,24.80
2022-12-14T17:45:04.656Z,23.65
2022-12-14T17:47:34.524Z,23.55
2022-12-14T17:50:02.856Z,22.83
2022-12-14T17:52:33.477Z,21.33
2022-12-14T17:55:02.138Z,22.00
2022-12-14T17:57:31.335Z,22.58
2022-12-14T18:00:14.492Z,21.33
2022-12-14T18:02:46.236Z,22.73
2022-12-14T18:05:20.901Z,22.83
2022-12-14T18:07:49.782Z,25.05
2022-12-14T18:10:19.716Z,23.08
2022-12-14T18:12:47.945Z,20.92
2022-12-14T18:15:21.312Z,23.20
2022-12-14T18:17:51.773Z,23.98
2022-12-14T18:20:20.879Z,23.00
2022-12-14T18:22:50.152Z,22.20
2022-12-14T18:25:32.096Z,23.42
2022-12-14T18:28:02.403Z,22.95
2022-12-14T18:30:39.503Z,22.25
2022-12-14T18:33:14.490Z,22.35
2022-12-14T18:35:43.779Z,22.15
2022-12-14T18:38:11.938Z,22.15
2022-12-14T18:40:41.947Z,22.48
2022-12-14T18:43:16.964Z,22.33
2022-12-14T18:45:45.204Z,20.65
2022-12-14T18:48:15.373Z,22.10
2022-12-14T18:50:43.835Z,20.30
2022-12-14T18:53:15.313Z,20.90
2022-12-14T18:55:44.529Z,20.85
2022-12-14T18:58:18.121Z,21.35
2022-12-14T19:00:47.246Z,22.60
2022-12-14T19:03:16.840Z,21.30
2022-12-14T19:05:45.120Z,21.63
2022-12-14T19:08:13.952Z,23.25
2022-12-14T19:10:44.190Z,21.77
2022-12-14T19:13:19.063Z,21.73
2022-12-14T19:15:51.552Z,25.00
2022-12-14T19:18:21.159Z,20.10
2022-12-14T19:20:49.964Z,22.17
2022-12-14T19:23:19.702Z,21.95
2022-12-14T19:25:48.590Z,21.83
2022-12-14T19:28:33.174Z,21.88
2022-12-14T19:31:02.829Z,22.10
2022-12-14T19:33:32.915Z,24.30
2022-12-14T19:36:01.405Z,22.70
2022-12-14T19:38:29.868Z,21.98
2022-12-14T19:41:00.413Z,23.67
2022-12-14T19:43:29.695Z,24.88
2022-12-14T19:45:58.385Z,22.77
2022-12-14T19:48:26.274Z,22.98
2022-12-14T19:50:56.032Z,24.20
2022-12-14T19:53:24.272Z,23.85
2022-12-14T19:55:54.121Z,22.48
2022-12-14T19:58:24.992Z,22.42
2022-12-14T20:00:54.020Z,21.02
2022-12-14T20:03:22.660Z,21.38
2022-12-14T20:05:53.169Z,23.20
2022-12-14T20:08:23.222Z,23.27
2022-12-14T20:10:53.123Z,23.25
2022-12-14T20:13:21.249Z,22.98
2022-12-14T20:15:50.825Z,21.25
2022-12-14T20:18:19.604Z,21.40
2022-12-14T20:20:49.968Z,23.55
2022-12-14T20:23:18.511Z,23.17
2022-12-14T20:25:47.779Z,26.60
2022-12-14T20:28:16.174Z,26.23
2022-12-14T20:30:45.632Z,25.58
2022-12-14T20:33:13.972Z,26.70
2022-12-14T20:35:42.484Z,27.05
2022-12-14T20:38:10.457Z,24.67
2022-12-14T20:40:39.483Z,25.23
2022-12-14T20:43:08.955Z,25.85
2022-12-14T20:45:39.457Z,25.45
2022-12-14T20:48:08.367Z,25.55
2022-12-14T20:50:37.323Z,22.23
2022-12-14T20:53:05.810Z,25.30
2022-12-14T20:55:35.162Z,23.05
2022-12-14T20:58:03.378Z,27.42
2022-12-14T21:00:33.371Z,25.52
2022-12-14T21:03:01.507Z,28.80
2022-12-14T21:05:29.721Z,26.17
2022-12-14T21:07:58.476Z,24.63
2022-12-14T21:10:26.389Z,23.67
2022-12-14T21:12:53.307Z,27.15
2022-12-14T21:15:21.772Z,24.48
2022-12-14T21:17:51.275Z,23.85
2022-12-14T21:20:19.851Z,24.77
2022-12-14T21:22:47.813Z,20.92
2022-12-14T21:25:16.352Z,21.52
2022-12-14T21:27:44.802Z,23.30
2022-12-14T21:30:13.873Z,22.60
2022-12-14T21:32:42.048Z,22.48
2022-12-14T21:35:13.382Z,23.48
2022-12-14T21:37:41.482Z,21.73
2022-12-14T21:40:31.102Z,24.42
2022-12-14T21:42:58.133Z,23.42
2022-12-14T21:45:26.746Z,26.40
2022-12-14T21:47:54.970Z,24.13
2022-12-14T21:50:24.555Z,23.90
2022-12-14T21:52:52.922Z,22.30
2022-12-14T21:55:21.460Z,24.75
2022-12-14T21:58:06.981Z,23.65
2022-12-14T22:00:35.398Z,23.77
2022-12-14T22:03:03.668Z,24.23
2022-12-14T22:05:33.761Z,25.13
2022-12-14T22:08:01.831Z,25.73
2022-12-14T22:10:30.324Z,24.23
2022-12-14T22:12:58.498Z,30.60
2022-12-14T22:15:27.057Z,28.15
2022-12-14T22:17:55.370Z,26.60
2022-12-14T22:20:23.844Z,26.20
2022-12-14T22:22:53.357Z,24.73
2022-12-14T22:25:22.079Z,24.45
2022-12-14T22:27:50.355Z,21.55
2022-12-14T22:30:19.314Z,24.75
2022-12-14T22:32:47.995Z,23.45
2022-12-14T22:35:16.736Z,26.95
2022-12-14T22:37:44.721Z,26.75
2022-12-14T22:40:14.821Z,24.13
2022-12-14T22:42:42.957Z,22.58
2022-12-14T22:45:11.925Z,21.75
2022-12-14T22:47:39.913Z,22.52
2022-12-14T22:50:09.238Z,24.13
2022-12-14T22:52:37.219Z,20.73
2022-12-14T22:55:06.310Z,21.60
2022-12-14T22:57:41.637Z,22.17
2022-12-14T23:00:13.562Z,22.00
2022-12-14T23:02:46.918Z,21.70
2022-12-14T23:05:16.217Z,21.42
2022-12-14T23:07:44.314Z,25.80
2022-12-14T23:10:30.312Z,23.15
2022-12-14T23:13:17.216Z,23.50
2022-12-14T23:16:02.485Z,21.95
2022-12-14T23:18:47.838Z,21.52
2022-12-14T23:21:33.639Z,24.85
2022-12-14T23:24:18.725Z,21.63
2022-12-14T23:27:09.346Z,22.63
2022-12-14T23:29:56.467Z,24.38
2022-12-14T23:32:42.246Z,22.85
2022-12-14T23:35:28.176Z,23.27
2022-12-14T23:38:13.815Z,24.33
2022-12-14T23:40:59.785Z,24.20
2022-12-14T23:43:45.179Z,23.92
2022-12-14T23:46:32.562Z,22.75
2022-12-14T23:49:18.226Z,22.63
2022-12-14T23:52:03.613Z,22.60
2022-12-14T23:54:49.092Z,22.98
2022-12-14T23:57:34.529Z,24.40
